sensor_id;sensor_type;location;lat;lon;timestamp;P1;durP1;ratioP1;P2;durP2;ratioP2
41903;SDS011;27586;51.124;4.182;2023-12-28T00:00:16;3.17;;;2.60;;
41903;SDS011;27586;51.124;4.182;2023-12-28T00:02:42;2.58;;;2.30;;
41903;SDS011;27586;51.124;4.182;2023-12-28T00:05:08;3.22;;;2.30;;
41903;SDS011;27586;51.124;4.182;2023-12-28T00:07:34;3.90;;;2.58;;
41903;SDS011;27586;51.124;4.182;2023-12-28T00:10:00;3.47;;;2.80;;
41903;SDS011;27586;51.124;4.182;2023-12-28T00:12:27;3.47;;;2.80;;
41903;SDS011;27586;51.124;4.182;2023-12-28T00:14:53;3.95;;;2.55;;
41903;SDS011;27586;51.124;4.182;2023-12-28T00:17:18;2.83;;;2.63;;
41903;SDS011;27586;51.124;4.182;2023-12-28T00:19:44;3.28;;;2.63;;
41903;SDS011;27586;51.124;4.182;2023-12-28T00:22:10;3.60;;;2.60;;
41903;SDS011;27586;51.124;4.182;2023-12-28T00:24:36;4.45;;;2.70;;
41903;SDS011;27586;51.124;4.182;2023-12-28T00:27:02;2.75;;;2.30;;
41903;SDS011;27586;51.124;4.182;2023-12-28T00:29:27;3.70;;;2.28;;
41903;SDS011;27586;51.124;4.182;2023-12-28T00:31:54;2.63;;;2.38;;
41903;SDS011;27586;51.124;4.182;2023-12-28T00:34:20;3.92;;;2.70;;
41903;SDS011;27586;51.124;4.182;2023-12-28T00:36:45;4.57;;;2.45;;
41903;SDS011;27586;51.124;4.182;2023-12-28T00:39:11;3.00;;;2.40;;
41903;SDS011;27586;51.124;4.182;2023-12-28T00:41:37;4.82;;;2.45;;
41903;SDS011;27586;51.124;4.182;2023-12-28T00:44:02;5.25;;;2.60;;
41903;SDS011;27586;51.124;4.182;2023-12-28T00:46:30;3.15;;;2.30;;
41903;SDS011;27586;51.124;4.182;2023-12-28T00:48:55;5.45;;;2.60;;
41903;SDS011;27586;51.124;4.182;2023-12-28T00:51:21;5.65;;;2.60;;
41903;SDS011;27586;51.124;4.182;2023-12-28T00:53:47;3.60;;;2.40;;
41903;SDS011;27586;51.124;4.182;2023-12-28T00:56:12;3.95;;;2.50;;
41903;SDS011;27586;51.124;4.182;2023-12-28T00:58:39;3.20;;;2.65;;
41903;SDS011;27586;51.124;4.182;2023-12-28T01:01:05;4.40;;;3.08;;
41903;SDS011;27586;51.124;4.182;2023-12-28T01:03:31;4.35;;;2.70;;
41903;SDS011;27586;51.124;4.182;2023-12-28T01:05:56;5.45;;;2.88;;
41903;SDS011;27586;51.124;4.182;2023-12-28T01:08:22;6.80;;;2.97;;
41903;SDS011;27586;51.124;4.182;2023-12-28T01:10:48;2.90;;;2.50;;
41903;SDS011;27586;51.124;4.182;2023-12-28T01:13:13;4.57;;;2.67;;
41903;SDS011;27586;51.124;4.182;2023-12-28T01:15:39;4.55;;;2.65;;
41903;SDS011;27586;51.124;4.182;2023-12-28T01:18:05;3.72;;;2.55;;
41903;SDS011;27586;51.124;4.182;2023-12-28T01:20:30;4.57;;;2.33;;
41903;SDS011;27586;51.124;4.182;2023-12-28T01:22:56;3.20;;;2.65;;
41903;SDS011;27586;51.124;4.182;2023-12-28T01:25:22;4.00;;;2.85;;
41903;SDS011;27586;51.124;4.182;2023-12-28T01:27:48;3.50;;;2.60;;
41903;SDS011;27586;51.124;4.182;2023-12-28T01:30:13;3.60;;;3.00;;
41903;SDS011;27586;51.124;4.182;2023-12-28T01:32:39;4.57;;;2.90;;
41903;SDS011;27586;51.124;4.182;2023-12-28T01:35:05;3.65;;;2.55;;
41903;SDS011;27586;51.124;4.182;2023-12-28T01:37:31;4.07;;;2.50;;
41903;SDS011;27586;51.124;4.182;2023-12-28T01:39:58;5.45;;;2.47;;
41903;SDS011;27586;51.124;4.182;2023-12-28T01:42:25;5.68;;;2.92;;
41903;SDS011;27586;51.124;4.182;2023-12-28T01:44:51;5.32;;;2.40;;
41903;SDS011;27586;51.124;4.182;2023-12-28T01:47:17;4.88;;;2.85;;
41903;SDS011;27586;51.124;4.182;2023-12-28T01:49:43;4.45;;;2.88;;
41903;SDS011;27586;51.124;4.182;2023-12-28T01:52:09;6.20;;;2.70;;
41903;SDS011;27586;51.124;4.182;2023-12-28T01:54:35;3.92;;;2.80;;
41903;SDS011;27586;51.124;4.182;2023-12-28T01:57:02;3.47;;;2.50;;
41903;SDS011;27586;51.124;4.182;2023-12-28T01:59:29;3.30;;;2.55;;
41903;SDS011;27586;51.124;4.182;2023-12-28T02:01:56;4.50;;;2.70;;
41903;SDS011;27586;51.124;4.182;2023-12-28T02:04:23;5.43;;;2.95;;
41903;SDS011;27586;51.124;4.182;2023-12-28T02:06:56;5.78;;;2.67;;
41903;SDS011;27586;51.124;4.182;2023-12-28T02:09:23;4.10;;;2.75;;
41903;SDS011;27586;51.124;4.182;2023-12-28T02:11:49;6.28;;;2.55;;
41903;SDS011;27586;51.124;4.182;2023-12-28T02:14:15;2.83;;;2.30;;
41903;SDS011;27586;51.124;4.182;2023-12-28T02:16:54;3.72;;;2.50;;
41903;SDS011;27586;51.124;4.182;2023-12-28T02:22:01;3.75;;;2.40;;
41903;SDS011;27586;51.124;4.182;2023-12-28T02:24:27;5.93;;;2.78;;
41903;SDS011;27586;51.124;4.182;2023-12-28T02:26:53;4.10;;;2.60;;
41903;SDS011;27586;51.124;4.182;2023-12-28T02:29:19;6.22;;;3.00;;
41903;SDS011;27586;51.124;4.182;2023-12-28T02:31:46;5.82;;;2.72;;
41903;SDS011;27586;51.124;4.182;2023-12-28T02:34:27;5.85;;;3.00;;
41903;SDS011;27586;51.124;4.182;2023-12-28T02:36:58;6.22;;;2.75;;
41903;SDS011;27586;51.124;4.182;2023-12-28T02:39:26;2.70;;;2.20;;
41903;SDS011;27586;51.124;4.182;2023-12-28T02:41:54;5.25;;;2.60;;
41903;SDS011;27586;51.124;4.182;2023-12-28T02:44:20;3.75;;;2.65;;
41903;SDS011;27586;51.124;4.182;2023-12-28T02:46:46;6.15;;;2.42;;
41903;SDS011;27586;51.124;4.182;2023-12-28T02:49:12;4.60;;;2.80;;
41903;SDS011;27586;51.124;4.182;2023-12-28T02:51:38;4.22;;;2.55;;
41903;SDS011;27586;51.124;4.182;2023-12-28T02:54:03;4.40;;;2.42;;
41903;SDS011;27586;51.124;4.182;2023-12-28T02:56:29;5.13;;;2.28;;
41903;SDS011;27586;51.124;4.182;2023-12-28T02:58:57;3.53;;;2.38;;
41903;SDS011;27586;51.124;4.182;2023-12-28T03:01:22;3.25;;;2.13;;
41903;SDS011;27586;51.124;4.182;2023-12-28T03:03:48;4.88;;;2.65;;
41903;SDS011;27586;51.124;4.182;2023-12-28T03:06:14;4.97;;;2.15;;
41903;SDS011;27586;51.124;4.182;2023-12-28T03:08:39;4.40;;;2.58;;
41903;SDS011;27586;51.124;4.182;2023-12-28T03:11:05;5.68;;;2.25;;
41903;SDS011;27586;51.124;4.182;2023-12-28T03:13:31;5.93;;;2.50;;
41903;SDS011;27586;51.124;4.182;2023-12-28T03:15:57;6.00;;;2.50;;
41903;SDS011;27586;51.124;4.182;2023-12-28T03:18:23;3.30;;;2.33;;
41903;SDS011;27586;51.124;4.182;2023-12-28T03:20:48;4.85;;;2.58;;
41903;SDS011;27586;51.124;4.182;2023-12-28T03:23:14;5.78;;;2.50;;
41903;SDS011;27586;51.124;4.182;2023-12-28T03:25:40;5.20;;;2.80;;
41903;SDS011;27586;51.124;4.182;2023-12-28T03:28:05;5.68;;;2.55;;
41903;SDS011;27586;51.124;4.182;2023-12-28T03:30:31;6.43;;;2.72;;
41903;SDS011;27586;51.124;4.182;2023-12-28T03:32:57;7.25;;;2.70;;
41903;SDS011;27586;51.124;4.182;2023-12-28T03:35:22;6.55;;;2.72;;
41903;SDS011;27586;51.124;4.182;2023-12-28T03:37:48;4.85;;;2.83;;
41903;SDS011;27586;51.124;4.182;2023-12-28T03:40:14;5.00;;;2.55;;
41903;SDS011;27586;51.124;4.182;2023-12-28T03:42:39;7.32;;;2.70;;
41903;SDS011;27586;51.124;4.182;2023-12-28T03:45:06;5.57;;;2.78;;
41903;SDS011;27586;51.124;4.182;2023-12-28T03:47:32;6.22;;;2.70;;
41903;SDS011;27586;51.124;4.182;2023-12-28T03:49:58;3.95;;;2.20;;
41903;SDS011;27586;51.124;4.182;2023-12-28T03:52:26;4.50;;;2.42;;
41903;SDS011;27586;51.124;4.182;2023-12-28T03:54:55;6.45;;;2.78;;
41903;SDS011;27586;51.124;4.182;2023-12-28T03:57:20;4.95;;;2.30;;
41903;SDS011;27586;51.124;4.182;2023-12-28T03:59:46;6.28;;;2.50;;
41903;SDS011;27586;51.124;4.182;2023-12-28T04:02:12;5.00;;;2.20;;
41903;SDS011;27586;51.124;4.182;2023-12-28T04:04:38;6.30;;;2.63;;
41903;SDS011;27586;51.124;4.182;2023-12-28T04:07:04;5.03;;;2.38;;
41903;SDS011;27586;51.124;4.182;2023-12-28T04:09:32;3.65;;;2.15;;
41903;SDS011;27586;51.124;4.182;2023-12-28T04:11:58;6.07;;;2.40;;
41903;SDS011;27586;51.124;4.182;2023-12-28T04:14:24;5.82;;;2.50;;
41903;SDS011;27586;51.124;4.182;2023-12-28T04:16:49;6.07;;;2.40;;
41903;SDS011;27586;51.124;4.182;2023-12-28T04:19:15;10.35;;;2.80;;
41903;SDS011;27586;51.124;4.182;2023-12-28T04:21:43;6.18;;;2.47;;
41903;SDS011;27586;51.124;4.182;2023-12-28T04:24:09;4.95;;;2.33;;
41903;SDS011;27586;51.124;4.182;2023-12-28T04:26:35;6.82;;;2.67;;
41903;SDS011;27586;51.124;4.182;2023-12-28T04:29:01;3.85;;;2.30;;
41903;SDS011;27586;51.124;4.182;2023-12-28T04:31:27;7.72;;;2.50;;
41903;SDS011;27586;51.124;4.182;2023-12-28T04:33:52;6.18;;;2.83;;
41903;SDS011;27586;51.124;4.182;2023-12-28T04:36:18;4.93;;;2.28;;
41903;SDS011;27586;51.124;4.182;2023-12-28T04:38:44;8.40;;;2.85;;
41903;SDS011;27586;51.124;4.182;2023-12-28T04:41:09;6.72;;;2.30;;
41903;SDS011;27586;51.124;4.182;2023-12-28T04:43:36;5.85;;;2.65;;
41903;SDS011;27586;51.124;4.182;2023-12-28T04:46:05;5.82;;;2.45;;
41903;SDS011;27586;51.124;4.182;2023-12-28T04:48:31;7.13;;;2.65;;
41903;SDS011;27586;51.124;4.182;2023-12-28T04:50:57;5.53;;;2.50;;
41903;SDS011;27586;51.124;4.182;2023-12-28T04:53:23;7.15;;;2.88;;
41903;SDS011;27586;51.124;4.182;2023-12-28T04:55:48;6.28;;;2.35;;
41903;SDS011;27586;51.124;4.182;2023-12-28T04:58:14;6.07;;;2.60;;
41903;SDS011;27586;51.124;4.182;2023-12-28T05:00:40;6.22;;;2.45;;
41903;SDS011;27586;51.124;4.182;2023-12-28T05:03:06;6.85;;;2.53;;
41903;SDS011;27586;51.124;4.182;2023-12-28T05:05:31;5.45;;;2.58;;
41903;SDS011;27586;51.124;4.182;2023-12-28T05:07:58;6.75;;;2.78;;
41903;SDS011;27586;51.124;4.182;2023-12-28T05:10:23;11.05;;;2.33;;
41903;SDS011;27586;51.124;4.182;2023-12-28T05:12:49;5.68;;;2.30;;
41903;SDS011;27586;51.124;4.182;2023-12-28T05:15:15;8.15;;;2.55;;
41903;SDS011;27586;51.124;4.182;2023-12-28T05:17:41;9.18;;;2.90;;
41903;SDS011;27586;51.124;4.182;2023-12-28T05:20:08;6.07;;;2.42;;
41903;SDS011;27586;51.124;4.182;2023-12-28T05:22:34;7.13;;;2.22;;
41903;SDS011;27586;51.124;4.182;2023-12-28T05:25:00;4.18;;;2.15;;
41903;SDS011;27586;51.124;4.182;2023-12-28T05:27:25;10.75;;;2.40;;
41903;SDS011;27586;51.124;4.182;2023-12-28T05:29:51;7.18;;;2.50;;
41903;SDS011;27586;51.124;4.182;2023-12-28T05:32:17;8.13;;;2.58;;
41903;SDS011;27586;51.124;4.182;2023-12-28T05:34:42;5.88;;;2.20;;
41903;SDS011;27586;51.124;4.182;2023-12-28T05:37:08;12.43;;;2.67;;
41903;SDS011;27586;51.124;4.182;2023-12-28T05:39:34;10.20;;;2.70;;
41903;SDS011;27586;51.124;4.182;2023-12-28T05:41:59;12.25;;;2.60;;
41903;SDS011;27586;51.124;4.182;2023-12-28T05:44:25;6.47;;;2.42;;
41903;SDS011;27586;51.124;4.182;2023-12-28T05:46:51;6.65;;;2.78;;
41903;SDS011;27586;51.124;4.182;2023-12-28T05:49:17;8.30;;;2.67;;
41903;SDS011;27586;51.124;4.182;2023-12-28T05:51:43;8.60;;;3.28;;
41903;SDS011;27586;51.124;4.182;2023-12-28T05:54:09;10.13;;;3.05;;
41903;SDS011;27586;51.124;4.182;2023-12-28T05:56:35;7.40;;;2.40;;
41903;SDS011;27586;51.124;4.182;2023-12-28T05:59:00;6.82;;;2.50;;
41903;SDS011;27586;51.124;4.182;2023-12-28T06:01:26;8.25;;;3.20;;
41903;SDS011;27586;51.124;4.182;2023-12-28T06:03:52;7.50;;;2.50;;
41903;SDS011;27586;51.124;4.182;2023-12-28T06:06:18;11.00;;;2.60;;
41903;SDS011;27586;51.124;4.182;2023-12-28T06:08:44;7.93;;;2.58;;
41903;SDS011;27586;51.124;4.182;2023-12-28T06:11:10;10.93;;;2.70;;
41903;SDS011;27586;51.124;4.182;2023-12-28T06:13:36;6.68;;;2.58;;
41903;SDS011;27586;51.124;4.182;2023-12-28T06:16:01;9.13;;;2.50;;
41903;SDS011;27586;51.124;4.182;2023-12-28T06:18:27;9.50;;;2.92;;
41903;SDS011;27586;51.124;4.182;2023-12-28T06:20:53;9.90;;;2.55;;
41903;SDS011;27586;51.124;4.182;2023-12-28T06:23:18;6.18;;;2.80;;
41903;SDS011;27586;51.124;4.182;2023-12-28T06:25:45;9.13;;;2.65;;
41903;SDS011;27586;51.124;4.182;2023-12-28T06:28:11;10.82;;;2.65;;
41903;SDS011;27586;51.124;4.182;2023-12-28T06:30:36;10.90;;;2.80;;
41903;SDS011;27586;51.124;4.182;2023-12-28T06:33:02;8.70;;;2.55;;
41903;SDS011;27586;51.124;4.182;2023-12-28T06:35:28;9.00;;;2.45;;
41903;SDS011;27586;51.124;4.182;2023-12-28T06:37:54;8.30;;;2.95;;
41903;SDS011;27586;51.124;4.182;2023-12-28T06:40:19;10.00;;;2.70;;
41903;SDS011;27586;51.124;4.182;2023-12-28T06:42:45;12.18;;;2.83;;
41903;SDS011;27586;51.124;4.182;2023-12-28T06:45:11;10.73;;;3.28;;
41903;SDS011;27586;51.124;4.182;2023-12-28T06:47:36;12.23;;;2.80;;
41903;SDS011;27586;51.124;4.182;2023-12-28T06:50:02;12.80;;;2.88;;
41903;SDS011;27586;51.124;4.182;2023-12-28T06:52:28;8.88;;;2.95;;
41903;SDS011;27586;51.124;4.182;2023-12-28T06:54:56;7.93;;;2.50;;
41903;SDS011;27586;51.124;4.182;2023-12-28T06:57:22;9.30;;;2.63;;
41903;SDS011;27586;51.124;4.182;2023-12-28T06:59:47;12.77;;;3.50;;
41903;SDS011;27586;51.124;4.182;2023-12-28T07:02:13;7.70;;;2.38;;
41903;SDS011;27586;51.124;4.182;2023-12-28T07:04:39;9.85;;;3.10;;
41903;SDS011;27586;51.124;4.182;2023-12-28T07:07:04;11.40;;;3.03;;
41903;SDS011;27586;51.124;4.182;2023-12-28T07:09:30;13.93;;;2.83;;
41903;SDS011;27586;51.124;4.182;2023-12-28T07:11:56;9.00;;;2.53;;
41903;SDS011;27586;51.124;4.182;2023-12-28T07:14:22;11.25;;;3.08;;
41903;SDS011;27586;51.124;4.182;2023-12-28T07:16:47;8.50;;;3.15;;
41903;SDS011;27586;51.124;4.182;2023-12-28T07:19:13;11.82;;;3.75;;
41903;SDS011;27586;51.124;4.182;2023-12-28T07:21:39;14.25;;;3.33;;
41903;SDS011;27586;51.124;4.182;2023-12-28T07:24:04;11.40;;;2.75;;
41903;SDS011;27586;51.124;4.182;2023-12-28T07:26:30;11.15;;;3.08;;
41903;SDS011;27586;51.124;4.182;2023-12-28T07:28:56;10.20;;;2.55;;
41903;SDS011;27586;51.124;4.182;2023-12-28T07:31:25;11.95;;;2.95;;
41903;SDS011;27586;51.124;4.182;2023-12-28T07:33:51;10.88;;;2.92;;
41903;SDS011;27586;51.124;4.182;2023-12-28T07:36:18;12.80;;;3.17;;
41903;SDS011;27586;51.124;4.182;2023-12-28T07:38:44;9.25;;;3.00;;
41903;SDS011;27586;51.124;4.182;2023-12-28T07:41:10;11.77;;;2.85;;
41903;SDS011;27586;51.124;4.182;2023-12-28T07:43:35;11.38;;;3.75;;
41903;SDS011;27586;51.124;4.182;2023-12-28T07:46:01;12.10;;;2.80;;
41903;SDS011;27586;51.124;4.182;2023-12-28T07:48:27;13.43;;;2.92;;
41903;SDS011;27586;51.124;4.182;2023-12-28T07:50:55;10.45;;;3.15;;
41903;SDS011;27586;51.124;4.182;2023-12-28T07:53:21;12.50;;;2.90;;
41903;SDS011;27586;51.124;4.182;2023-12-28T07:55:47;8.38;;;2.78;;
41903;SDS011;27586;51.124;4.182;2023-12-28T07:58:13;7.78;;;2.47;;
41903;SDS011;27586;51.124;4.182;2023-12-28T08:00:39;9.68;;;3.00;;
41903;SDS011;27586;51.124;4.182;2023-12-28T08:03:05;16.17;;;3.13;;
41903;SDS011;27586;51.124;4.182;2023-12-28T08:05:31;16.02;;;2.78;;
41903;SDS011;27586;51.124;4.182;2023-12-28T08:07:56;13.05;;;3.50;;
41903;SDS011;27586;51.124;4.182;2023-12-28T08:10:22;9.30;;;2.80;;
41903;SDS011;27586;51.124;4.182;2023-12-28T08:12:48;11.13;;;3.03;;
41903;SDS011;27586;51.124;4.182;2023-12-28T08:15:13;10.95;;;2.92;;
41903;SDS011;27586;51.124;4.182;2023-12-28T08:17:39;10.93;;;3.28;;
41903;SDS011;27586;51.124;4.182;2023-12-28T08:20:05;11.73;;;2.70;;
41903;SDS011;27586;51.124;4.182;2023-12-28T08:22:31;7.88;;;2.72;;
41903;SDS011;27586;51.124;4.182;2023-12-28T08:24:57;10.30;;;2.60;;
41903;SDS011;27586;51.124;4.182;2023-12-28T08:27:23;10.30;;;3.08;;
41903;SDS011;27586;51.124;4.182;2023-12-28T08:29:48;13.60;;;2.97;;
41903;SDS011;27586;51.124;4.182;2023-12-28T08:32:14;10.82;;;3.00;;
41903;SDS011;27586;51.124;4.182;2023-12-28T08:34:40;11.43;;;3.20;;
41903;SDS011;27586;51.124;4.182;2023-12-28T08:37:06;14.55;;;3.33;;
41903;SDS011;27586;51.124;4.182;2023-12-28T08:39:31;8.98;;;2.95;;
41903;SDS011;27586;51.124;4.182;2023-12-28T08:41:57;12.88;;;3.00;;
41903;SDS011;27586;51.124;4.182;2023-12-28T08:44:23;9.20;;;2.70;;
41903;SDS011;27586;51.124;4.182;2023-12-28T08:46:49;15.27;;;3.60;;
41903;SDS011;27586;51.124;4.182;2023-12-28T08:49:14;12.52;;;3.30;;
41903;SDS011;27586;51.124;4.182;2023-12-28T08:51:41;9.73;;;2.90;;
41903;SDS011;27586;51.124;4.182;2023-12-28T08:54:07;11.50;;;3.38;;
41903;SDS011;27586;51.124;4.182;2023-12-28T08:56:34;13.23;;;3.65;;
41903;SDS011;27586;51.124;4.182;2023-12-28T08:59:00;14.40;;;3.45;;
41903;SDS011;27586;51.124;4.182;2023-12-28T09:01:26;17.48;;;3.20;;
41903;SDS011;27586;51.124;4.182;2023-12-28T09:03:52;8.98;;;2.85;;
41903;SDS011;27586;51.124;4.182;2023-12-28T09:06:21;10.25;;;3.20;;
41903;SDS011;27586;51.124;4.182;2023-12-28T09:08:48;11.32;;;3.50;;
41903;SDS011;27586;51.124;4.182;2023-12-28T09:11:15;12.70;;;3.10;;
41903;SDS011;27586;51.124;4.182;2023-12-28T09:13:41;10.50;;;3.28;;
41903;SDS011;27586;51.124;4.182;2023-12-28T09:16:09;13.52;;;3.17;;
41903;SDS011;27586;51.124;4.182;2023-12-28T09:18:36;11.20;;;3.47;;
41903;SDS011;27586;51.124;4.182;2023-12-28T09:21:03;16.85;;;3.40;;
41903;SDS011;27586;51.124;4.182;2023-12-28T09:23:30;12.55;;;3.28;;
41903;SDS011;27586;51.124;4.182;2023-12-28T09:25:56;9.70;;;3.42;;
41903;SDS011;27586;51.124;4.182;2023-12-28T09:28:23;13.80;;;3.33;;
41903;SDS011;27586;51.124;4.182;2023-12-28T09:30:49;14.15;;;3.40;;
41903;SDS011;27586;51.124;4.182;2023-12-28T09:33:14;11.18;;;3.17;;
41903;SDS011;27586;51.124;4.182;2023-12-28T09:35:41;9.18;;;3.03;;
41903;SDS011;27586;51.124;4.182;2023-12-28T09:38:07;10.10;;;3.45;;
41903;SDS011;27586;51.124;4.182;2023-12-28T09:40:33;14.95;;;3.50;;
41903;SDS011;27586;51.124;4.182;2023-12-28T09:45:40;15.23;;;3.50;;
41903;SDS011;27586;51.124;4.182;2023-12-28T09:48:06;16.30;;;3.58;;
41903;SDS011;27586;51.124;4.182;2023-12-28T09:50:32;12.18;;;3.47;;
41903;SDS011;27586;51.124;4.182;2023-12-28T09:52:58;13.70;;;3.97;;
41903;SDS011;27586;51.124;4.182;2023-12-28T09:55:23;11.07;;;3.15;;
41903;SDS011;27586;51.124;4.182;2023-12-28T09:57:52;13.95;;;3.13;;
41903;SDS011;27586;51.124;4.182;2023-12-28T10:00:18;15.13;;;3.58;;
41903;SDS011;27586;51.124;4.182;2023-12-28T10:02:44;13.18;;;3.60;;
41903;SDS011;27586;51.124;4.182;2023-12-28T10:05:16;13.77;;;3.50;;
41903;SDS011;27586;51.124;4.182;2023-12-28T10:07:42;14.68;;;3.65;;
41903;SDS011;27586;51.124;4.182;2023-12-28T10:10:09;13.15;;;3.58;;
41903;SDS011;27586;51.124;4.182;2023-12-28T10:12:35;13.52;;;3.40;;
41903;SDS011;27586;51.124;4.182;2023-12-28T10:15:01;13.95;;;3.47;;
41903;SDS011;27586;51.124;4.182;2023-12-28T10:17:27;12.73;;;3.58;;
41903;SDS011;27586;51.124;4.182;2023-12-28T10:19:53;15.00;;;3.92;;
41903;SDS011;27586;51.124;4.182;2023-12-28T10:22:21;13.95;;;3.40;;
41903;SDS011;27586;51.124;4.182;2023-12-28T10:24:46;15.70;;;3.40;;
41903;SDS011;27586;51.124;4.182;2023-12-28T10:27:15;14.30;;;4.38;;
41903;SDS011;27586;51.124;4.182;2023-12-28T10:29:41;11.65;;;3.25;;
41903;SDS011;27586;51.124;4.182;2023-12-28T10:32:07;13.85;;;3.53;;
41903;SDS011;27586;51.124;4.182;2023-12-28T10:34:33;13.07;;;3.70;;
41903;SDS011;27586;51.124;4.182;2023-12-28T10:36:59;16.40;;;4.65;;
41903;SDS011;27586;51.124;4.182;2023-12-28T10:39:27;12.07;;;3.47;;
41903;SDS011;27586;51.124;4.182;2023-12-28T10:41:58;16.90;;;4.13;;
41903;SDS011;27586;51.124;4.182;2023-12-28T10:44:28;9.70;;;3.13;;
41903;SDS011;27586;51.124;4.182;2023-12-28T10:47:00;15.50;;;4.07;;
41903;SDS011;27586;51.124;4.182;2023-12-28T10:49:28;14.18;;;4.72;;
41903;SDS011;27586;51.124;4.182;2023-12-28T10:51:58;13.10;;;3.53;;
41903;SDS011;27586;51.124;4.182;2023-12-28T10:57:09;17.67;;;4.10;;
41903;SDS011;27586;51.124;4.182;2023-12-28T10:59:50;14.07;;;3.58;;
41903;SDS011;27586;51.124;4.182;2023-12-28T11:02:38;12.73;;;3.35;;
41903;SDS011;27586;51.124;4.182;2023-12-28T11:05:09;9.35;;;2.75;;
41903;SDS011;27586;51.124;4.182;2023-12-28T11:07:36;13.32;;;3.35;;
41903;SDS011;27586;51.124;4.182;2023-12-28T11:10:05;10.27;;;3.92;;
41903;SDS011;27586;51.124;4.182;2023-12-28T11:12:32;13.65;;;3.70;;
41903;SDS011;27586;51.124;4.182;2023-12-28T11:14:59;15.68;;;4.30;;
41903;SDS011;27586;51.124;4.182;2023-12-28T11:17:24;15.63;;;4.15;;
41903;SDS011;27586;51.124;4.182;2023-12-28T11:19:51;16.60;;;4.45;;
41903;SDS011;27586;51.124;4.182;2023-12-28T11:22:18;16.55;;;4.38;;
41903;SDS011;27586;51.124;4.182;2023-12-28T11:24:47;13.45;;;3.92;;
41903;SDS011;27586;51.124;4.182;2023-12-28T11:27:13;12.88;;;3.97;;
41903;SDS011;27586;51.124;4.182;2023-12-28T11:29:38;15.15;;;4.18;;
41903;SDS011;27586;51.124;4.182;2023-12-28T11:32:07;14.82;;;4.00;;
41903;SDS011;27586;51.124;4.182;2023-12-28T11:34:33;17.13;;;4.57;;
41903;SDS011;27586;51.124;4.182;2023-12-28T11:37:16;15.98;;;4.32;;
41903;SDS011;27586;51.124;4.182;2023-12-28T11:39:45;13.77;;;3.65;;
41903;SDS011;27586;51.124;4.182;2023-12-28T11:42:18;15.75;;;3.63;;
41903;SDS011;27586;51.124;4.182;2023-12-28T11:44:45;14.98;;;4.03;;
41903;SDS011;27586;51.124;4.182;2023-12-28T11:47:15;14.65;;;4.53;;
41903;SDS011;27586;51.124;4.182;2023-12-28T11:49:42;13.50;;;4.00;;
41903;SDS011;27586;51.124;4.182;2023-12-28T11:52:11;16.70;;;4.43;;
41903;SDS011;27586;51.124;4.182;2023-12-28T11:54:51;11.05;;;3.75;;
41903;SDS011;27586;51.124;4.182;2023-12-28T11:57:17;16.15;;;4.25;;
41903;SDS011;27586;51.124;4.182;2023-12-28T11:59:42;12.30;;;3.33;;
41903;SDS011;27586;51.124;4.182;2023-12-28T12:02:09;16.25;;;4.05;;
41903;SDS011;27586;51.124;4.182;2023-12-28T12:04:36;13.63;;;4.18;;
41903;SDS011;27586;51.124;4.182;2023-12-28T12:07:02;14.18;;;3.58;;
41903;SDS011;27586;51.124;4.182;2023-12-28T12:09:28;16.23;;;4.15;;
41903;SDS011;27586;51.124;4.182;2023-12-28T12:11:59;17.30;;;3.85;;
41903;SDS011;27586;51.124;4.182;2023-12-28T12:14:28;14.32;;;3.78;;
41903;SDS011;27586;51.124;4.182;2023-12-28T12:16:55;18.42;;;4.38;;
41903;SDS011;27586;51.124;4.182;2023-12-28T12:19:25;16.67;;;4.60;;
41903;SDS011;27586;51.124;4.182;2023-12-28T12:21:57;12.85;;;4.00;;
41903;SDS011;27586;51.124;4.182;2023-12-28T12:24:23;14.77;;;4.20;;
41903;SDS011;27586;51.124;4.182;2023-12-28T12:26:49;15.95;;;4.32;;
41903;SDS011;27586;51.124;4.182;2023-12-28T12:29:16;12.35;;;4.05;;
41903;SDS011;27586;51.124;4.182;2023-12-28T12:31:42;14.25;;;3.85;;
41903;SDS011;27586;51.124;4.182;2023-12-28T12:34:10;11.98;;;3.60;;
41903;SDS011;27586;51.124;4.182;2023-12-28T12:36:36;13.30;;;4.15;;
41903;SDS011;27586;51.124;4.182;2023-12-28T12:39:02;16.00;;;3.97;;
41903;SDS011;27586;51.124;4.182;2023-12-28T12:41:34;18.25;;;4.25;;
41903;SDS011;27586;51.124;4.182;2023-12-28T12:44:00;13.55;;;4.25;;
41903;SDS011;27586;51.124;4.182;2023-12-28T12:46:26;14.18;;;3.95;;
41903;SDS011;27586;51.124;4.182;2023-12-28T12:48:58;14.77;;;3.85;;
41903;SDS011;27586;51.124;4.182;2023-12-28T12:51:24;13.18;;;3.88;;
41903;SDS011;27586;51.124;4.182;2023-12-28T12:53:57;19.50;;;4.47;;
41903;SDS011;27586;51.124;4.182;2023-12-28T12:56:25;12.80;;;3.83;;
41903;SDS011;27586;51.124;4.182;2023-12-28T12:58:54;11.18;;;3.17;;
41903;SDS011;27586;51.124;4.182;2023-12-28T13:01:21;12.85;;;3.88;;
41903;SDS011;27586;51.124;4.182;2023-12-28T13:03:47;12.10;;;4.07;;
41903;SDS011;27586;51.124;4.182;2023-12-28T13:06:13;12.65;;;3.42;;
41903;SDS011;27586;51.124;4.182;2023-12-28T13:08:39;12.32;;;4.03;;
41903;SDS011;27586;51.124;4.182;2023-12-28T13:11:05;15.88;;;4.18;;
41903;SDS011;27586;51.124;4.182;2023-12-28T13:13:34;15.13;;;4.45;;
41903;SDS011;27586;51.124;4.182;2023-12-28T13:16:00;16.50;;;3.80;;
41903;SDS011;27586;51.124;4.182;2023-12-28T13:18:26;15.23;;;3.78;;
41903;SDS011;27586;51.124;4.182;2023-12-28T13:20:52;12.88;;;3.50;;
41903;SDS011;27586;51.124;4.182;2023-12-28T13:23:17;11.45;;;3.38;;
41903;SDS011;27586;51.124;4.182;2023-12-28T13:25:43;13.48;;;3.92;;
41903;SDS011;27586;51.124;4.182;2023-12-28T13:28:09;8.98;;;3.38;;
41903;SDS011;27586;51.124;4.182;2023-12-28T13:30:35;13.52;;;4.00;;
41903;SDS011;27586;51.124;4.182;2023-12-28T13:33:02;13.15;;;3.83;;
41903;SDS011;27586;51.124;4.182;2023-12-28T13:35:28;14.80;;;3.70;;
41903;SDS011;27586;51.124;4.182;2023-12-28T13:37:54;13.30;;;3.83;;
41903;SDS011;27586;51.124;4.182;2023-12-28T13:40:20;12.57;;;3.78;;
41903;SDS011;27586;51.124;4.182;2023-12-28T13:42:45;11.88;;;4.03;;
41903;SDS011;27586;51.124;4.182;2023-12-28T13:45:11;16.45;;;3.90;;
41903;SDS011;27586;51.124;4.182;2023-12-28T13:47:37;15.05;;;4.05;;
41903;SDS011;27586;51.124;4.182;2023-12-28T13:50:03;11.57;;;3.60;;
41903;SDS011;27586;51.124;4.182;2023-12-28T13:52:31;13.43;;;3.47;;
41903;SDS011;27586;51.124;4.182;2023-12-28T13:54:57;11.48;;;3.28;;
41903;SDS011;27586;51.124;4.182;2023-12-28T13:57:22;13.32;;;3.60;;
41903;SDS011;27586;51.124;4.182;2023-12-28T13:59:48;12.93;;;3.58;;
41903;SDS011;27586;51.124;4.182;2023-12-28T14:02:13;16.77;;;3.83;;
41903;SDS011;27586;51.124;4.182;2023-12-28T14:04:39;11.05;;;3.63;;
41903;SDS011;27586;51.124;4.182;2023-12-28T14:07:05;10.02;;;3.22;;
41903;SDS011;27586;51.124;4.182;2023-12-28T14:09:30;11.95;;;3.75;;
41903;SDS011;27586;51.124;4.182;2023-12-28T14:11:58;12.60;;;3.97;;
41903;SDS011;27586;51.124;4.182;2023-12-28T14:14:23;12.65;;;3.75;;
41903;SDS011;27586;51.124;4.182;2023-12-28T14:16:49;11.73;;;3.90;;
41903;SDS011;27586;51.124;4.182;2023-12-28T14:19:15;14.55;;;4.18;;
41903;SDS011;27586;51.124;4.182;2023-12-28T14:21:41;12.93;;;3.35;;
41903;SDS011;27586;51.124;4.182;2023-12-28T14:24:07;12.32;;;3.78;;
41903;SDS011;27586;51.124;4.182;2023-12-28T14:26:33;14.65;;;4.30;;
41903;SDS011;27586;51.124;4.182;2023-12-28T14:29:00;15.52;;;3.95;;
41903;SDS011;27586;51.124;4.182;2023-12-28T14:31:31;13.48;;;3.92;;
41903;SDS011;27586;51.124;4.182;2023-12-28T14:33:57;12.30;;;3.60;;
41903;SDS011;27586;51.124;4.182;2023-12-28T14:36:30;14.65;;;3.58;;
41903;SDS011;27586;51.124;4.182;2023-12-28T14:39:03;11.80;;;3.85;;
41903;SDS011;27586;51.124;4.182;2023-12-28T14:41:30;12.93;;;4.22;;
41903;SDS011;27586;51.124;4.182;2023-12-28T14:43:56;11.18;;;4.15;;